WEATHER DATA

YESTERDAY
Time Temp. Dewp. Hum. Bar.
00:06 4 4 100 1022.5
00:17 4.1 4.1 100 1022.5
00:27 4 4 100 1022.3
00:36 4 4 100 1022.4
00:47 4 4 100 1022.4
00:57 3.9 3.9 100 1022.5
01:07 3.8 3.8 100 1022.5
01:17 3.8 3.8 100 1022.5
01:28 3.8 3.8 100 1022.6
01:37 3.7 3.7 100 1022.5
01:47 3.5 3.5 100 1022.5
01:57 3.3 3.3 100 1022.5
02:08 3 3 100 1022.4
02:13 2.9 2.9 100 1022.4
02:22 2.8 2.8 100 1022.5
02:32 2.8 2.8 100 1022.3
02:43 2.7 2.7 100 1022.3
02:53 2.6 2.6 100 1022.4
03:02 2.6 2.6 100 1022.4
03:13 2.5 2.5 100 1022.4
03:23 2.3 2.3 100 1022.4
03:33 2.2 2.2 100 1022.4
03:43 2.1 2.1 100 1022.4
03:53 2 2 100 1022.5
04:03 2.1 2.1 100 1022.4
04:13 2.3 2.3 100 1022.4
04:24 2.4 2.4 100 1022.5
04:34 2.5 2.5 100 1022.5
04:43 2.4 2.4 100 1022.6
04:53 2.4 2.4 100 1022.5
05:04 2.5 2.5 100 1022.5
05:14 2.7 2.7 100 1022.4
05:24 2.7 2.7 100 1022.5
05:34 2.7 2.7 100 1022.5
05:44 2.9 2.9 100 1022.7
05:54 3 3 100 1022.7
06:04 3.1 3.1 100 1022.6
06:15 3.2 3.2 100 1022.6
06:25 3.2 3.2 100 1022.8
06:34 3.2 3.2 100 1022.8
06:45 3.3 3.3 100 1022.8
06:55 3.3 3.3 100 1022.6
07:05 3.3 3.3 100 1022.8
07:15 3.2 3.2 100 1022.9
07:25 3.2 3.2 100 1022.9
07:35 3.1 3.1 100 1023
07:45 3 3 100 1023.2
07:55 2.9 2.9 100 1023.2
08:06 2.9 2.9 100 1023.1
08:15 3 3 100 1023
08:25 3 3 100 1022.9
08:36 3.2 3.2 100 1023.1
08:46 3.3 3.3 100 1023
08:56 3.6 3.6 100 1023
09:05 4.1 4.1 100 1022.8
09:16 4.3 4.3 100 1022.7
09:26 4.7 4.7 100 1022.7
09:35 5 5 100 1022.6
09:46 5.3 5.3 100 1022.7
09:56 5.6 5.6 100 1022.5
10:06 5.8 5.8 100 1022.9
10:16 5.9 5.9 100 1023
10:26 6 6 100 1022.5
10:36 6.1 6.1 100 1022.8
10:46 6.3 6.3 100 1022.8
10:56 6.4 6.4 100 1022.6
11:06 6.4 6.4 100 1022.7
11:16 6.5 6.5 100 1022.6
11:26 6.6 6.6 100 1022.5
11:36 6.7 6.7 100 1022.3
11:46 6.7 6.7 100 1022.1
11:56 6.8 6.8 100 1022
12:07 6.9 6.9 100 1021.9
12:16 7.1 7.1 100 1021.8
12:26 7.3 7.3 100 1021.7
12:37 7.5 7.5 100 1021.9
12:47 7.8 7.8 100 1021.7
12:56 8.4 8.4 100 1021.8
13:06 9 7.9 93 1021.8
13:17 9.5 7.8 89 1021.8
13:37 10.4 8.3 87 1021.7
13:47 10.7 8.1 84 1021.4
14:07 11.2 8.4 83 1021.5
14:17 10.7 7.2 79 1021.4
14:28 9.7 7 83 1021.5
14:37 9.1 6.7 85 1021.7
14:47 8.6 6.2 85 1021.6
14:57 8.2 6.2 87 1021.6
15:08 7.8 6.1 89 1021.6
15:17 7.6 6.2 91 1021.6
15:38 7.1 6 93 1021.4
15:48 6.9 5.8 93 1021.4
15:57 6.6 5.6 93 1021.5
16:08 6.3 5.6 95 1021.4
16:18 6 5.3 95 1021.5
16:28 5.8 5.2 96 1021.4
16:38 5.5 5.1 97 1021.2
16:48 5.4 5.1 98 1021.5
16:58 5.3 5 98 1021.2
17:08 5.1 4.8 98 1021.2
17:18 5 4.9 99 1021
17:29 4.9 4.8 99 1021
17:39 4.9 4.9 100 1020.8
17:48 4.8 4.8 100 1020.7
17:59 4.8 4.8 100 1020.8
18:09 4.7 4.7 100 1020.7
18:18 4.7 4.7 100 1020.7
18:29 4.7 4.7 100 1020.5
18:39 4.6 4.6 100 1020.5
18:49 4.5 4.5 100 1020.5
18:59 4.5 4.5 100 1020.3
19:09 4.4 4.4 100 1020.4
19:19 4.5 4.5 100 1020.3
19:29 4.5 4.5 100 1020.1
19:39 4.6 4.6 100 1020.1
19:50 4.7 4.7 100 1020.1
19:59 4.7 4.6 99 1019.9
20:09 4.7 4.6 99 1019.8
20:20 4.7 4.4 98 1019.8
20:30 4.8 4.4 97 1019.8
20:39 4.9 4.3 96 1019.7
21:00 4.8 4.1 95 1019.6
21:10 4.8 4.1 95 1019.7
21:20 4.8 4.1 95 1019.7
21:30 4.7 4 95 1019.7
21:41 4.7 4 95 1019.7
22:00 4.8 3.6 92 1019.7
22:11 4.7 3.5 92 1019.4
22:21 4.7 3.4 91 1019.4
22:30 4.8 3.5 91 1019.5
22:41 4.7 3.5 92 1019.5
22:51 4.6 3.4 92 1019.6
23:01 4.5 3.5 93 1019.6
23:10 4.4 3.5 94 1019.5
23:21 4.2 3.3 94 1019.6
23:31 4.1 3.4 95 1019.4
23:40 4.1 3.4 95 1019.5
23:51 4 3.3 95 1019.5

DAY STATISTIC

2018-11-18
TEMPERATURE
AVERAGE
4.8
HIGH
11.2
14:07
LOW
2.0
03:53
PRESSURE
AVERAGE
1021.7
HIGH
1023.2
07:45
LOW
1019.4
22:11
DEWPOINT
AVERAGE
4.4
HIGH
8.4
12:56
LOW
2.0
03:53
HUMIDITY
AVERAGE
98
HIGH
100
00:06
LOW
79
14:17
TEMPERATURE (°C)
LOW
2.0
HIGH
11.2
AVERAGE
4.8
PRESSURE (hpa)
LOW
1019.4
HIGH
1023.2
AVERAGE
1021.7
DEVICE